Vfpa 1 — VG2773 — position and weather

sailwx.info

Track history (hours):
 
Tides and Currents Weather Stations Pressure Air Temp Water Temp Dewpoint Dewpoint Depression Visibility Wind Speed Wind Dir Waves Ship Positions

Vfpa 1

Last reported at 2015-Jul-01 16:33 UTC. Time now 2015-Jul-01 16:52 UTC.
Position N 49°17' W 123°06'.

; draft 1.4 m.

Type: Dredging. MMSI: 316014014.

Date/timePositionNaut miles runAvg speedWind from/ knotsBaromVisibWave heightAir tempDewpointWater temp
2015-Jul-01 16:33N 49°17' W 123°06'0 0.0
2015-Jul-01 15:33N 49°17' W 123°06'0 0.0
2015-Jul-01 14:32N 49°17' W 123°06'0 0.0
2015-Jul-01 13:33N 49°17' W 123°06'0 0.0
2015-Jul-01 12:33N 49°17' W 123°06'0 0.0
2015-Jul-01 11:31N 49°17' W 123°06'0 0.0
2015-Jul-01 10:32N 49°17' W 123°06'0 0.0
2015-Jul-01 09:33N 49°17' W 123°06'0 0.0
2015-Jul-01 08:33N 49°17' W 123°06'0 0.0
2015-Jul-01 07:31N 49°17' W 123°06'0 0.0
2015-Jul-01 06:33N 49°17' W 123°06'0 0.0
2015-Jul-01 05:33N 49°17' W 123°06'0 0.0
2015-Jul-01 04:33N 49°17' W 123°06'0 0.0
2015-Jul-01 03:33N 49°17' W 123°06'0 0.0
2015-Jul-01 02:22N 49°17' W 123°06'0 0.0
2015-Jul-01 01:33N 49°17' W 123°06'0 0.0
2015-Jul-01 00:33N 49°17' W 123°06'2 0.9
2015-Jun-30 22:34N 49°18' W 123°04'1 1.4
2015-Jun-30 21:33N 49°17' W 123°06'0 0.3
2015-Jun-30 20:33N 49°17' W 123°06'0 0.0
2015-Jun-30 19:34N 49°17' W 123°06'0 0.0
2015-Jun-30 18:32N 49°17' W 123°06'0 0.0
2015-Jun-30 17:34N 49°17' W 123°06'0 0.0
2015-Jun-30 16:34N 49°17' W 123°06'0 0.0
2015-Jun-30 15:33N 49°17' W 123°06'0 0.0
2015-Jun-30 14:34N 49°17' W 123°06'0 0.0
2015-Jun-30 13:33N 49°17' W 123°06'0 0.0
2015-Jun-30 12:34N 49°17' W 123°06'0 0.0
2015-Jun-30 11:33N 49°17' W 123°06'0 0.0
2015-Jun-30 10:33N 49°17' W 123°06'0 0.0
2015-Jun-30 09:34N 49°17' W 123°06'0 0.0
2015-Jun-30 08:34N 49°17' W 123°06'0 0.0
2015-Jun-30 07:32N 49°17' W 123°06'0 0.0
2015-Jun-30 06:33N 49°17' W 123°06'0 0.0
2015-Jun-30 05:34N 49°17' W 123°06'0 0.0
2015-Jun-30 04:34N 49°17' W 123°06'0 0.0
2015-Jun-30 03:33N 49°17' W 123°06'0 0.0
2015-Jun-30 02:32N 49°17' W 123°06'0 0.0
2015-Jun-30 01:33N 49°17' W 123°06'0 0.0
2015-Jun-30 00:33N 49°17' W 123°06'0 0.0
2015-Jun-29 23:30N 49°17' W 123°06'0 0.0
2015-Jun-29 22:34N 49°17' W 123°06'5 4.8
2015-Jun-29 21:34N 49°18' W 122°59'8 8.5
2015-Jun-29 20:33N 49°17' W 123°12'4 3.7
2015-Jun-29 19:33N 49°17' W 123°06'0 0.1
2015-Jun-29 18:34N 49°17' W 123°06'1 1.3
2015-Jun-29 17:33N 49°17' W 123°04'1 1.3
2015-Jun-29 16:33N 49°17' W 123°06'0 0.1
2015-Jun-29 15:33N 49°17' W 123°06'0 0.0
2015-Jun-29 08:33N 49°17' W 123°06'0 0.0
2015-Jun-29 07:30N 49°17' W 123°06'0 0.0
2015-Jun-29 06:33N 49°17' W 123°06'0 0.0
2015-Jun-29 05:33N 49°17' W 123°06'0 0.0
2015-Jun-29 04:33N 49°17' W 123°06'0 0.0
2015-Jun-29 03:33N 49°17' W 123°06'0 0.0
2015-Jun-29 02:30N 49°17' W 123°06'0 0.0
2015-Jun-29 01:33N 49°17' W 123°06'0 0.0
2015-Jun-29 00:33N 49°17' W 123°06'0 0.0
2015-Jun-28 23:31N 49°17' W 123°06'0 0.0
2015-Jun-28 22:33N 49°17' W 123°06'0 0.0
2015-Jun-28 21:33N 49°17' W 123°06'0 0.0
2015-Jun-28 20:33N 49°17' W 123°06'0 0.0
2015-Jun-28 19:33N 49°17' W 123°06'0 0.0
2015-Jun-28 18:34N 49°17' W 123°06'0 0.0
2015-Jun-28 17:33N 49°17' W 123°06'0 0.0
2015-Jun-28 16:34N 49°17' W 123°06'0 0.0
2015-Jun-28 15:33N 49°17' W 123°06'0 0.0
2015-Jun-28 14:32N 49°17' W 123°06'0 0.0
2015-Jun-28 13:34N 49°17' W 123°06'0 0.0
2015-Jun-28 12:34N 49°17' W 123°06'0 0.0
2015-Jun-28 11:31N 49°17' W 123°06'0 0.0
2015-Jun-28 10:34N 49°17' W 123°06'0 0.0
2015-Jun-28 09:30N 49°17' W 123°06'0 0.0
2015-Jun-28 08:33N 49°17' W 123°06'0 0.0
2015-Jun-28 07:33N 49°17' W 123°06'0 0.0
2015-Jun-28 06:34N 49°17' W 123°06'0 0.0
2015-Jun-28 05:33N 49°17' W 123°06'0 0.0
2015-Jun-28 04:33N 49°17' W 123°06'0 0.0
2015-Jun-28 03:33N 49°17' W 123°06'0 0.0
2015-Jun-28 02:33N 49°17' W 123°06'0 0.0
2015-Jun-28 01:33N 49°17' W 123°06'0 0.0
2015-Jun-28 00:33N 49°17' W 123°06'0 0.0
2015-Jun-27 23:33N 49°17' W 123°06'0 0.0
2015-Jun-27 22:33N 49°17' W 123°06'0 0.0
2015-Jun-27 21:34N 49°17' W 123°06'0 0.0
2015-Jun-27 20:33N 49°17' W 123°06'0 0.0
2015-Jun-27 19:34N 49°17' W 123°06'0 0.0
2015-Jun-27 18:33N 49°17' W 123°06'0 0.0
2015-Jun-27 17:33N 49°17' W 123°06'0 0.0
2015-Jun-27 16:34N 49°17' W 123°06'0 0.0
2015-Jun-27 15:33N 49°17' W 123°06'0 0.0
2015-Jun-27 14:32N 49°17' W 123°06'0 0.0
2015-Jun-27 13:34N 49°17' W 123°06'0 0.0
2015-Jun-27 12:32N 49°17' W 123°06'0 0.0
2015-Jun-27 11:33N 49°17' W 123°06'0 0.0
2015-Jun-27 10:34N 49°17' W 123°06'0 0.0
2015-Jun-27 09:33N 49°17' W 123°06'0 0.0
2015-Jun-27 08:34N 49°17' W 123°06'0 0.0
2015-Jun-27 07:32N 49°17' W 123°06'0 0.0
2015-Jun-27 06:32N 49°17' W 123°06'0 0.0
2015-Jun-27 05:32N 49°17' W 123°06'0 0.0
2015-Jun-27 04:33N 49°17' W 123°06'0 0.0
2015-Jun-27 03:33N 49°17' W 123°06'0 0.0
2015-Jun-27 02:30N 49°17' W 123°06'0 0.0
2015-Jun-27 01:33N 49°17' W 123°06'0 0.0
2015-Jun-27 00:33N 49°17' W 123°06'0 0.0
2015-Jun-26 23:08N 49°17' W 123°06'0 0.1
2015-Jun-26 22:21N 49°17' W 123°06'0 0.1
2015-Jun-26 21:33N 49°17' W 123°06'0 0.0
2015-Jun-26 20:32N 49°17' W 123°06'0 0.0
2015-Jun-26 19:34N 49°17' W 123°06'0 0.0
2015-Jun-26 18:33N 49°17' W 123°06'0 0.0
2015-Jun-26 17:33N 49°17' W 123°06'0 0.0
2015-Jun-26 16:33N 49°17' W 123°06'0 0.0
2015-Jun-26 15:33N 49°17' W 123°06'0 0.0
2015-Jun-26 14:32N 49°17' W 123°06'0 0.0
2015-Jun-26 13:33N 49°17' W 123°06'0 0.0
2015-Jun-26 12:33N 49°17' W 123°06'0 0.0
2015-Jun-26 11:33N 49°17' W 123°06'0 0.0
2015-Jun-26 10:33N 49°17' W 123°06'0 0.0
2015-Jun-26 09:33N 49°17' W 123°06'0 0.0
2015-Jun-26 08:34N 49°17' W 123°06'0 0.0
2015-Jun-26 07:33N 49°17' W 123°06'0 0.0
2015-Jun-26 06:34N 49°17' W 123°06'0 0.0
2015-Jun-26 05:33N 49°17' W 123°06'0 0.0
2015-Jun-26 04:33N 49°17' W 123°06'0 0.0
2015-Jun-26 03:32N 49°17' W 123°06'0 0.0
2015-Jun-26 02:33N 49°17' W 123°06'0 0.0
2015-Jun-26 01:33N 49°17' W 123°06'0 0.0
2015-Jun-26 00:33N 49°17' W 123°06'0 0.0
2015-Jun-25 23:15N 49°17' W 123°06'1 1.7
2015-Jun-25 22:33N 49°17' W 123°04'1 1.2
2015-Jun-25 21:34N 49°17' W 123°06'1 0.5
2015-Jun-25 20:33N 49°18' W 123°06'2 2.1
2015-Jun-25 19:33N 49°18' W 123°03'2 1.9
2015-Jun-25 18:33N 49°17' W 123°06'1 0.9
2015-Jun-25 17:33N 49°18' W 123°06'1 1.1
2015-Jun-25 16:33N 49°17' W 123°07'0 0.4
2015-Jun-25 15:34N 49°17' W 123°06'0 0.0
2015-Jun-25 14:34N 49°17' W 123°06'0 0.3
2015-Jun-25 13:33N 49°17' W 123°06'0 0.3
2015-Jun-25 12:33N 49°17' W 123°06'0 0.0
2015-Jun-25 11:34N 49°17' W 123°06'0 0.0
2015-Jun-25 10:34N 49°17' W 123°06'0 0.0
2015-Jun-25 09:33N 49°17' W 123°06'0 0.0
2015-Jun-25 08:34N 49°17' W 123°06'0 0.0
2015-Jun-25 07:32N 49°17' W 123°06'0 0.0
2015-Jun-25 06:32N 49°17' W 123°06'0 0.0
2015-Jun-25 05:33N 49°17' W 123°06'0 0.0
2015-Jun-25 04:32N 49°17' W 123°06'0 0.0
2015-Jun-25 03:33N 49°17' W 123°06'0 0.0
2015-Jun-25 02:34N 49°17' W 123°06'0 0.0
2015-Jun-25 01:33N 49°17' W 123°06'0 0.0
2015-Jun-25 00:34N 49°17' W 123°06'0 0.0
2015-Jun-24 23:19N 49°17' W 123°06'0 0.0
2015-Jun-24 22:20N 49°17' W 123°06'0 0.1
2015-Jun-24 21:33N 49°17' W 123°06'0 0.0
2015-Jun-24 20:34N 49°17' W 123°06'0 0.0
2015-Jun-24 19:33N 49°17' W 123°06'2 1.7
2015-Jun-24 18:34N 49°18' W 123°04'2 2.0
2015-Jun-24 17:33N 49°17' W 123°07'0 0.4
2015-Jun-24 16:33N 49°17' W 123°06'0 0.0
2015-Jun-24 15:33N 49°17' W 123°06'0 0.0
2015-Jun-24 14:33N 49°17' W 123°06'0 0.0
2015-Jun-24 13:33N 49°17' W 123°06'0 0.0
2015-Jun-24 12:33N 49°17' W 123°06'0 0.0
2015-Jun-24 11:33N 49°17' W 123°06'0 0.0
2015-Jun-24 10:32N 49°17' W 123°06'0 0.0
2015-Jun-24 09:33N 49°17' W 123°06'0 0.0
2015-Jun-24 08:34N 49°17' W 123°06'0 0.0
2015-Jun-24 07:33N 49°17' W 123°06'0 0.0
2015-Jun-24 06:33N 49°17' W 123°06'0 0.0
2015-Jun-24 05:33N 49°17' W 123°06'0 0.0
2015-Jun-24 04:33N 49°17' W 123°06'0 0.0
2015-Jun-24 03:33N 49°17' W 123°06'0 0.0
2015-Jun-24 02:33N 49°17' W 123°06'0 0.0
2015-Jun-24 01:34N 49°17' W 123°06'0 0.0
2015-Jun-24 00:33N 49°17' W 123°06'0 0.0
2015-Jun-23 23:30N 49°17' W 123°06'0 0.0
2015-Jun-23 22:27N 49°17' W 123°06'0 0.0
2015-Jun-23 21:33N 49°17' W 123°06'0 0.0
2015-Jun-23 20:33N 49°17' W 123°06'0 0.0
2015-Jun-23 19:33N 49°17' W 123°06'0 0.1
2015-Jun-23 19:05N 49°17' W 123°06'0 0.0
2015-Jun-22 19:33N 49°17' W 123°06'0 0.0
2015-Jun-22 18:33N 49°17' W 123°06'0 0.0
2015-Jun-22 17:33N 49°17' W 123°06'0 0.0
2015-Jun-22 16:33N 49°17' W 123°06'0 0.0
2015-Jun-22 15:32N 49°17' W 123°06'0 0.0
2015-Jun-22 14:33N 49°17' W 123°06'0 0.0
2015-Jun-22 13:33N 49°17' W 123°06'0 0.0
2015-Jun-22 12:33N 49°17' W 123°06'0 0.0
2015-Jun-22 11:32N 49°17' W 123°06'0 0.0
2015-Jun-22 10:34N 49°17' W 123°06'0 0.0
2015-Jun-22 09:33N 49°17' W 123°06'0 0.0
2015-Jun-22 08:33N 49°17' W 123°06'0 0.0
2015-Jun-22 07:33N 49°17' W 123°06'0 0.0
2015-Jun-22 06:33N 49°17' W 123°06'0 0.0
2015-Jun-22 05:33N 49°17' W 123°06'0 0.0
2015-Jun-22 04:33N 49°17' W 123°06'0 0.0
2015-Jun-22 03:29N 49°17' W 123°06'0 0.0
2015-Jun-22 02:33N 49°17' W 123°06'0 0.0
2015-Jun-22 01:33N 49°17' W 123°06'0 0.0
2015-Jun-22 00:33N 49°17' W 123°06'0 0.0
2015-Jun-21 23:28N 49°17' W 123°06'0 0.0
2015-Jun-21 22:24N 49°17' W 123°06'0 0.0
2015-Jun-21 21:33N 49°17' W 123°06'0 0.0
2015-Jun-21 20:33N 49°17' W 123°06'0 0.0
2015-Jun-21 19:33N 49°17' W 123°06'0 0.0
2015-Jun-21 18:33N 49°17' W 123°06'0 0.0
2015-Jun-21 17:33N 49°17' W 123°06'0 0.0
2015-Jun-21 16:33N 49°17' W 123°06'  
Track history (hours):
 
Tides and Currents Weather Stations Pressure Air Temp Water Temp Dewpoint Dewpoint Depression Visibility Wind Speed Wind Dir Waves Ship Positions

Vfpa 1

Last reported at 2015-Jul-01 16:33 UTC. Time now 2015-Jul-01 16:52 UTC.
Position N 49°17' W 123°06'.

; draft 1.4 m.

Type: Dredging. MMSI: 316014014.

Date/timePositionNaut miles runAvg speedWind from/ knotsBaromVisibWave heightAir tempDewpointWater temp
2015-Jul-01 16:33N 49°17' W 123°06'0 0.0
2015-Jul-01 15:33N 49°17' W 123°06'0 0.0
2015-Jul-01 14:32N 49°17' W 123°06'0 0.0
2015-Jul-01 13:33N 49°17' W 123°06'0 0.0
2015-Jul-01 12:33N 49°17' W 123°06'0 0.0
2015-Jul-01 11:31N 49°17' W 123°06'0 0.0
2015-Jul-01 10:32N 49°17' W 123°06'0 0.0
2015-Jul-01 09:33N 49°17' W 123°06'0 0.0
2015-Jul-01 08:33N 49°17' W 123°06'0 0.0
2015-Jul-01 07:31N 49°17' W 123°06'0 0.0
2015-Jul-01 06:33N 49°17' W 123°06'0 0.0
2015-Jul-01 05:33N 49°17' W 123°06'0 0.0
2015-Jul-01 04:33N 49°17' W 123°06'0 0.0
2015-Jul-01 03:33N 49°17' W 123°06'0 0.0
2015-Jul-01 02:22N 49°17' W 123°06'0 0.0
2015-Jul-01 01:33N 49°17' W 123°06'0 0.0
2015-Jul-01 00:33N 49°17' W 123°06'2 0.9
2015-Jun-30 22:34N 49°18' W 123°04'1 1.4
2015-Jun-30 21:33N 49°17' W 123°06'0 0.3
2015-Jun-30 20:33N 49°17' W 123°06'0 0.0
2015-Jun-30 19:34N 49°17' W 123°06'0 0.0
2015-Jun-30 18:32N 49°17' W 123°06'0 0.0
2015-Jun-30 17:34N 49°17' W 123°06'0 0.0
2015-Jun-30 16:34N 49°17' W 123°06'0 0.0
2015-Jun-30 15:33N 49°17' W 123°06'0 0.0
2015-Jun-30 14:34N 49°17' W 123°06'0 0.0
2015-Jun-30 13:33N 49°17' W 123°06'0 0.0
2015-Jun-30 12:34N 49°17' W 123°06'0 0.0
2015-Jun-30 11:33N 49°17' W 123°06'0 0.0
2015-Jun-30 10:33N 49°17' W 123°06'0 0.0
2015-Jun-30 09:34N 49°17' W 123°06'0 0.0
2015-Jun-30 08:34N 49°17' W 123°06'0 0.0
2015-Jun-30 07:32N 49°17' W 123°06'0 0.0
2015-Jun-30 06:33N 49°17' W 123°06'0 0.0
2015-Jun-30 05:34N 49°17' W 123°06'0 0.0
2015-Jun-30 04:34N 49°17' W 123°06'0 0.0
2015-Jun-30 03:33N 49°17' W 123°06'0 0.0
2015-Jun-30 02:32N 49°17' W 123°06'0 0.0
2015-Jun-30 01:33N 49°17' W 123°06'0 0.0
2015-Jun-30 00:33N 49°17' W 123°06'0 0.0
2015-Jun-29 23:30N 49°17' W 123°06'0 0.0
2015-Jun-29 22:34N 49°17' W 123°06'5 4.8
2015-Jun-29 21:34N 49°18' W 122°59'8 8.5
2015-Jun-29 20:33N 49°17' W 123°12'4 3.7
2015-Jun-29 19:33N 49°17' W 123°06'0 0.1
2015-Jun-29 18:34N 49°17' W 123°06'1 1.3
2015-Jun-29 17:33N 49°17' W 123°04'1 1.3
2015-Jun-29 16:33N 49°17' W 123°06'0 0.1
2015-Jun-29 15:33N 49°17' W 123°06'0 0.0
2015-Jun-29 08:33N 49°17' W 123°06'0 0.0
2015-Jun-29 07:30N 49°17' W 123°06'0 0.0
2015-Jun-29 06:33N 49°17' W 123°06'0 0.0
2015-Jun-29 05:33N 49°17' W 123°06'0 0.0
2015-Jun-29 04:33N 49°17' W 123°06'0 0.0
2015-Jun-29 03:33N 49°17' W 123°06'0 0.0
2015-Jun-29 02:30N 49°17' W 123°06'0 0.0
2015-Jun-29 01:33N 49°17' W 123°06'0 0.0
2015-Jun-29 00:33N 49°17' W 123°06'0 0.0
2015-Jun-28 23:31N 49°17' W 123°06'0 0.0
2015-Jun-28 22:33N 49°17' W 123°06'0 0.0
2015-Jun-28 21:33N 49°17' W 123°06'0 0.0
2015-Jun-28 20:33N 49°17' W 123°06'0 0.0
2015-Jun-28 19:33N 49°17' W 123°06'0 0.0
2015-Jun-28 18:34N 49°17' W 123°06'0 0.0
2015-Jun-28 17:33N 49°17' W 123°06'0 0.0
2015-Jun-28 16:34N 49°17' W 123°06'0 0.0
2015-Jun-28 15:33N 49°17' W 123°06'0 0.0
2015-Jun-28 14:32N 49°17' W 123°06'0 0.0
2015-Jun-28 13:34N 49°17' W 123°06'0 0.0
2015-Jun-28 12:34N 49°17' W 123°06'0 0.0
2015-Jun-28 11:31N 49°17' W 123°06'0 0.0
2015-Jun-28 10:34N 49°17' W 123°06'0 0.0
2015-Jun-28 09:30N 49°17' W 123°06'0 0.0
2015-Jun-28 08:33N 49°17' W 123°06'0 0.0
2015-Jun-28 07:33N 49°17' W 123°06'0 0.0
2015-Jun-28 06:34N 49°17' W 123°06'0 0.0
2015-Jun-28 05:33N 49°17' W 123°06'0 0.0
2015-Jun-28 04:33N 49°17' W 123°06'0 0.0
2015-Jun-28 03:33N 49°17' W 123°06'0 0.0
2015-Jun-28 02:33N 49°17' W 123°06'0 0.0
2015-Jun-28 01:33N 49°17' W 123°06'0 0.0
2015-Jun-28 00:33N 49°17' W 123°06'0 0.0
2015-Jun-27 23:33N 49°17' W 123°06'0 0.0
2015-Jun-27 22:33N 49°17' W 123°06'0 0.0
2015-Jun-27 21:34N 49°17' W 123°06'0 0.0
2015-Jun-27 20:33N 49°17' W 123°06'0 0.0
2015-Jun-27 19:34N 49°17' W 123°06'0 0.0
2015-Jun-27 18:33N 49°17' W 123°06'0 0.0
2015-Jun-27 17:33N 49°17' W 123°06'0 0.0
2015-Jun-27 16:34N 49°17' W 123°06'0 0.0
2015-Jun-27 15:33N 49°17' W 123°06'0 0.0
2015-Jun-27 14:32N 49°17' W 123°06'0 0.0
2015-Jun-27 13:34N 49°17' W 123°06'0 0.0
2015-Jun-27 12:32N 49°17' W 123°06'0 0.0
2015-Jun-27 11:33N 49°17' W 123°06'0 0.0
2015-Jun-27 10:34N 49°17' W 123°06'0 0.0
2015-Jun-27 09:33N 49°17' W 123°06'0 0.0
2015-Jun-27 08:34N 49°17' W 123°06'0 0.0
2015-Jun-27 07:32N 49°17' W 123°06'0 0.0
2015-Jun-27 06:32N 49°17' W 123°06'0 0.0
2015-Jun-27 05:32N 49°17' W 123°06'0 0.0
2015-Jun-27 04:33N 49°17' W 123°06'0 0.0
2015-Jun-27 03:33N 49°17' W 123°06'0 0.0
2015-Jun-27 02:30N 49°17' W 123°06'0 0.0
2015-Jun-27 01:33N 49°17' W 123°06'0 0.0
2015-Jun-27 00:33N 49°17' W 123°06'0 0.0
2015-Jun-26 23:08N 49°17' W 123°06'0 0.1
2015-Jun-26 22:21N 49°17' W 123°06'0 0.1
2015-Jun-26 21:33N 49°17' W 123°06'0 0.0
2015-Jun-26 20:32N 49°17' W 123°06'0 0.0
2015-Jun-26 19:34N 49°17' W 123°06'0 0.0
2015-Jun-26 18:33N 49°17' W 123°06'0 0.0
2015-Jun-26 17:33N 49°17' W 123°06'0 0.0
2015-Jun-26 16:33N 49°17' W 123°06'0 0.0
2015-Jun-26 15:33N 49°17' W 123°06'0 0.0
2015-Jun-26 14:32N 49°17' W 123°06'0 0.0
2015-Jun-26 13:33N 49°17' W 123°06'0 0.0
2015-Jun-26 12:33N 49°17' W 123°06'0 0.0
2015-Jun-26 11:33N 49°17' W 123°06'0 0.0
2015-Jun-26 10:33N 49°17' W 123°06'0 0.0
2015-Jun-26 09:33N 49°17' W 123°06'0 0.0
2015-Jun-26 08:34N 49°17' W 123°06'0 0.0
2015-Jun-26 07:33N 49°17' W 123°06'0 0.0
2015-Jun-26 06:34N 49°17' W 123°06'0 0.0
2015-Jun-26 05:33N 49°17' W 123°06'0 0.0
2015-Jun-26 04:33N 49°17' W 123°06'0 0.0
2015-Jun-26 03:32N 49°17' W 123°06'0 0.0
2015-Jun-26 02:33N 49°17' W 123°06'0 0.0
2015-Jun-26 01:33N 49°17' W 123°06'0 0.0
2015-Jun-26 00:33N 49°17' W 123°06'0 0.0
2015-Jun-25 23:15N 49°17' W 123°06'1 1.7
2015-Jun-25 22:33N 49°17' W 123°04'1 1.2
2015-Jun-25 21:34N 49°17' W 123°06'1 0.5
2015-Jun-25 20:33N 49°18' W 123°06'2 2.1
2015-Jun-25 19:33N 49°18' W 123°03'2 1.9
2015-Jun-25 18:33N 49°17' W 123°06'1 0.9
2015-Jun-25 17:33N 49°18' W 123°06'1 1.1
2015-Jun-25 16:33N 49°17' W 123°07'0 0.4
2015-Jun-25 15:34N 49°17' W 123°06'0 0.0
2015-Jun-25 14:34N 49°17' W 123°06'0 0.3
2015-Jun-25 13:33N 49°17' W 123°06'0 0.3
2015-Jun-25 12:33N 49°17' W 123°06'0 0.0
2015-Jun-25 11:34N 49°17' W 123°06'0 0.0
2015-Jun-25 10:34N 49°17' W 123°06'0 0.0
2015-Jun-25 09:33N 49°17' W 123°06'0 0.0
2015-Jun-25 08:34N 49°17' W 123°06'0 0.0
2015-Jun-25 07:32N 49°17' W 123°06'0 0.0
2015-Jun-25 06:32N 49°17' W 123°06'0 0.0
2015-Jun-25 05:33N 49°17' W 123°06'0 0.0
2015-Jun-25 04:32N 49°17' W 123°06'0 0.0
2015-Jun-25 03:33N 49°17' W 123°06'0 0.0
2015-Jun-25 02:34N 49°17' W 123°06'0 0.0
2015-Jun-25 01:33N 49°17' W 123°06'0 0.0
2015-Jun-25 00:34N 49°17' W 123°06'0 0.0
2015-Jun-24 23:19N 49°17' W 123°06'0 0.0
2015-Jun-24 22:20N 49°17' W 123°06'0 0.1
2015-Jun-24 21:33N 49°17' W 123°06'0 0.0
2015-Jun-24 20:34N 49°17' W 123°06'0 0.0
2015-Jun-24 19:33N 49°17' W 123°06'2 1.7
2015-Jun-24 18:34N 49°18' W 123°04'2 2.0
2015-Jun-24 17:33N 49°17' W 123°07'0 0.4
2015-Jun-24 16:33N 49°17' W 123°06'0 0.0
2015-Jun-24 15:33N 49°17' W 123°06'0 0.0
2015-Jun-24 14:33N 49°17' W 123°06'0 0.0
2015-Jun-24 13:33N 49°17' W 123°06'0 0.0
2015-Jun-24 12:33N 49°17' W 123°06'0 0.0
2015-Jun-24 11:33N 49°17' W 123°06'0 0.0
2015-Jun-24 10:32N 49°17' W 123°06'0 0.0
2015-Jun-24 09:33N 49°17' W 123°06'0 0.0
2015-Jun-24 08:34N 49°17' W 123°06'0 0.0
2015-Jun-24 07:33N 49°17' W 123°06'0 0.0
2015-Jun-24 06:33N 49°17' W 123°06'0 0.0
2015-Jun-24 05:33N 49°17' W 123°06'0 0.0
2015-Jun-24 04:33N 49°17' W 123°06'0 0.0
2015-Jun-24 03:33N 49°17' W 123°06'0 0.0
2015-Jun-24 02:33N 49°17' W 123°06'0 0.0
2015-Jun-24 01:34N 49°17' W 123°06'0 0.0
2015-Jun-24 00:33N 49°17' W 123°06'0 0.0
2015-Jun-23 23:30N 49°17' W 123°06'0 0.0
2015-Jun-23 22:27N 49°17' W 123°06'0 0.0
2015-Jun-23 21:33N 49°17' W 123°06'0 0.0
2015-Jun-23 20:33N 49°17' W 123°06'0 0.0
2015-Jun-23 19:33N 49°17' W 123°06'0 0.1
2015-Jun-23 19:05N 49°17' W 123°06'0 0.0
2015-Jun-22 19:33N 49°17' W 123°06'0 0.0
2015-Jun-22 18:33N 49°17' W 123°06'0 0.0
2015-Jun-22 17:33N 49°17' W 123°06'0 0.0
2015-Jun-22 16:33N 49°17' W 123°06'0 0.0
2015-Jun-22 15:32N 49°17' W 123°06'0 0.0
2015-Jun-22 14:33N 49°17' W 123°06'0 0.0
2015-Jun-22 13:33N 49°17' W 123°06'0 0.0
2015-Jun-22 12:33N 49°17' W 123°06'0 0.0
2015-Jun-22 11:32N 49°17' W 123°06'0 0.0
2015-Jun-22 10:34N 49°17' W 123°06'0 0.0
2015-Jun-22 09:33N 49°17' W 123°06'0 0.0
2015-Jun-22 08:33N 49°17' W 123°06'0 0.0
2015-Jun-22 07:33N 49°17' W 123°06'0 0.0
2015-Jun-22 06:33N 49°17' W 123°06'0 0.0
2015-Jun-22 05:33N 49°17' W 123°06'0 0.0
2015-Jun-22 04:33N 49°17' W 123°06'0 0.0
2015-Jun-22 03:29N 49°17' W 123°06'0 0.0
2015-Jun-22 02:33N 49°17' W 123°06'0 0.0
2015-Jun-22 01:33N 49°17' W 123°06'0 0.0
2015-Jun-22 00:33N 49°17' W 123°06'0 0.0
2015-Jun-21 23:28N 49°17' W 123°06'0 0.0
2015-Jun-21 22:24N 49°17' W 123°06'0 0.0
2015-Jun-21 21:33N 49°17' W 123°06'0 0.0
2015-Jun-21 20:33N 49°17' W 123°06'0 0.0
2015-Jun-21 19:33N 49°17' W 123°06'0 0.0
2015-Jun-21 18:33N 49°17' W 123°06'0 0.0
2015-Jun-21 17:33N 49°17' W 123°06'0 0.0
2015-Jun-21 16:33N 49°17' W 123°06'  

Dump ship's entire track history